createdAt,value
2018-08-07T00:00:24.790Z,57.25
2018-08-07T00:02:53.780Z,58.24
2018-08-07T00:05:22.482Z,57.09
2018-08-07T00:07:53.646Z,57.74
2018-08-07T00:10:24.634Z,56.68
2018-08-07T00:12:54.003Z,55.80
2018-08-07T00:15:25.560Z,56.39
2018-08-07T00:17:54.481Z,56.06
2018-08-07T00:20:23.425Z,55.71
2018-08-07T00:22:52.480Z,55.48
2018-08-07T00:25:21.321Z,55.95
2018-08-07T00:27:50.113Z,55.35
2018-08-07T00:30:19.167Z,55.63
2018-08-07T00:32:47.853Z,55.31
2018-08-07T00:35:18.680Z,56.00
2018-08-07T00:37:48.661Z,56.02
2018-08-07T00:40:18.397Z,55.42
2018-08-07T00:42:48.261Z,56.93
2018-08-07T00:45:20.431Z,57.67
2018-08-07T00:47:49.801Z,58.04
2018-08-07T00:50:20.561Z,58.82
2018-08-07T00:52:50.673Z,58.11
2018-08-07T00:55:20.152Z,57.43
2018-08-07T00:57:49.798Z,58.36
2018-08-07T01:00:18.927Z,59.46
2018-08-07T01:02:47.910Z,59.39
2018-08-07T01:05:17.664Z,59.02
2018-08-07T01:07:46.614Z,59.60
2018-08-07T01:10:17.184Z,60.36
2018-08-07T01:12:46.188Z,59.97
2018-08-07T01:15:18.545Z,61.36
2018-08-07T01:17:47.851Z,60.67
2018-08-07T01:20:23.967Z,59.75
2018-08-07T01:22:53.015Z,59.79
2018-08-07T01:25:25.040Z,60.15
2018-08-07T01:27:54.041Z,60.70
2018-08-07T01:30:27.571Z,62.05
2018-08-07T01:32:56.981Z,62.48
2018-08-07T01:35:27.556Z,62.94
2018-08-07T01:37:56.513Z,61.93
2018-08-07T01:40:25.381Z,62.56
2018-08-07T01:42:54.231Z,63.61
2018-08-07T01:45:23.197Z,63.97
2018-08-07T01:47:52.064Z,64.52
2018-08-07T01:50:20.928Z,64.20
2018-08-07T01:52:49.874Z,64.23
2018-08-07T01:55:22.869Z,65.02
2018-08-07T01:57:51.990Z,64.10
2018-08-07T02:00:20.963Z,64.33
2018-08-07T02:02:50.252Z,63.82
2018-08-07T02:05:19.735Z,64.27
2018-08-07T02:07:48.700Z,64.42
2018-08-07T02:10:19.040Z,64.16
2018-08-07T02:12:47.909Z,64.52
2018-08-07T02:15:16.884Z,64.51
2018-08-07T02:17:45.551Z,64.72
2018-08-07T02:20:16.302Z,64.40
2018-08-07T02:22:45.793Z,64.77
2018-08-07T02:25:17.380Z,65.29
2018-08-07T02:27:46.734Z,66.71
2018-08-07T02:30:16.768Z,66.82
2018-08-07T02:32:45.845Z,67.05
2018-08-07T02:35:15.647Z,66.49
2018-08-07T02:37:45.431Z,66.05
2018-08-07T02:40:15.223Z,65.56
2018-08-07T02:42:44.264Z,64.65
2018-08-07T02:45:15.740Z,65.01
2018-08-07T02:47:45.144Z,65.31
2018-08-07T02:50:17.836Z,66.16
2018-08-07T02:52:46.728Z,65.39
2018-08-07T02:55:15.673Z,64.91
2018-08-07T02:57:45.199Z,65.08
2018-08-07T03:00:17.452Z,65.48
2018-08-07T03:02:46.502Z,64.62
2018-08-07T03:05:15.992Z,65.85
2018-08-07T03:07:44.958Z,65.12
2018-08-07T03:10:13.951Z,64.76
2018-08-07T03:12:42.827Z,65.54
2018-08-07T03:15:16.972Z,65.30
2018-08-07T03:17:46.571Z,64.90
2018-08-07T03:20:15.803Z,65.02
2018-08-07T03:22:44.921Z,64.68
2018-08-07T03:25:14.366Z,65.28
2018-08-07T03:27:44.259Z,64.88
2018-08-07T03:30:15.565Z,65.83
2018-08-07T03:32:44.880Z,66.87
2018-08-07T03:35:13.878Z,65.85
2018-08-07T03:37:42.972Z,65.23
2018-08-07T03:40:15.525Z,65.83
2018-08-07T03:42:44.721Z,66.26
2018-08-07T03:45:14.752Z,65.87
2018-08-07T03:47:44.605Z,65.18
2018-08-07T03:50:13.572Z,66.28
2018-08-07T03:52:42.419Z,66.08
2018-08-07T03:55:15.208Z,66.25
2018-08-07T03:57:44.840Z,67.33
2018-08-07T04:00:20.138Z,67.55
2018-08-07T04:02:49.035Z,67.22
2018-08-07T04:05:18.022Z,67.63
2018-08-07T04:07:47.466Z,67.00
2018-08-07T04:10:18.060Z,66.93
2018-08-07T04:12:46.982Z,66.44
2018-08-07T04:15:18.481Z,66.29
2018-08-07T04:17:47.405Z,65.38
2018-08-07T04:20:17.706Z,65.27
2018-08-07T04:22:47.062Z,65.95
2018-08-07T04:25:16.016Z,67.66
2018-08-07T04:27:44.874Z,66.24
2018-08-07T04:30:15.778Z,66.64
2018-08-07T04:32:44.892Z,65.79
2018-08-07T04:35:15.416Z,65.70
2018-08-07T04:37:44.971Z,66.02
2018-08-07T04:40:13.913Z,65.37
2018-08-07T04:42:42.773Z,65.95
2018-08-07T04:45:15.510Z,65.22
2018-08-07T04:47:45.011Z,65.97
2018-08-07T04:50:13.963Z,65.32
2018-08-07T04:52:43.100Z,65.37
2018-08-07T04:55:12.476Z,65.60
2018-08-07T04:57:41.407Z,64.87
2018-08-07T05:00:14.767Z,65.84
2018-08-07T05:02:44.816Z,65.22
2018-08-07T05:05:13.915Z,64.76
2018-08-07T05:07:42.944Z,64.15
2018-08-07T05:10:15.240Z,63.47
2018-08-07T05:12:44.930Z,62.51
2018-08-07T05:15:14.253Z,62.66
2018-08-07T05:17:44.341Z,62.28
2018-08-07T05:20:13.287Z,62.00
2018-08-07T05:22:42.169Z,60.65
2018-08-07T05:25:11.914Z,59.16
2018-08-07T05:27:40.825Z,58.10
2018-08-07T05:30:14.602Z,57.29
2018-08-07T05:32:44.128Z,55.81
2018-08-07T05:35:14.175Z,55.18
2018-08-07T05:37:43.524Z,55.04
2018-08-07T05:40:12.527Z,54.13
2018-08-07T05:42:41.824Z,54.15
2018-08-07T05:45:13.554Z,53.98
2018-08-07T05:47:42.549Z,53.22
2018-08-07T05:50:14.379Z,53.77
2018-08-07T05:52:43.292Z,52.11
2018-08-07T05:55:12.317Z,52.82
2018-08-07T05:57:41.268Z,51.48
2018-08-07T06:00:18.467Z,50.91
2018-08-07T06:02:48.748Z,50.81
2018-08-07T06:05:17.696Z,51.03
2018-08-07T06:07:47.438Z,49.50
2018-08-07T06:10:16.416Z,51.08
2018-08-07T06:12:45.283Z,48.55
2018-08-07T06:15:15.913Z,48.74
2018-08-07T06:17:45.682Z,49.29
2018-08-07T06:20:14.768Z,49.35
2018-08-07T06:22:43.710Z,48.77
2018-08-07T06:25:12.656Z,46.24
2018-08-07T06:27:41.671Z,47.41
2018-08-07T06:30:18.830Z,48.21
2018-08-07T06:32:48.667Z,48.36
2018-08-07T06:35:18.100Z,49.66
2018-08-07T06:37:46.948Z,49.18
2018-08-07T06:40:15.868Z,48.83
2018-08-07T06:42:44.544Z,45.77
2018-08-07T06:45:14.437Z,44.44
2018-08-07T06:47:43.309Z,44.77
2018-08-07T06:50:14.788Z,47.68
2018-08-07T06:52:44.871Z,46.61
2018-08-07T06:55:13.924Z,46.37
2018-08-07T06:57:42.760Z,47.21
2018-08-07T07:00:23.457Z,44.05
2018-08-07T07:02:53.199Z,45.62
2018-08-07T07:05:22.275Z,43.84
2018-08-07T07:07:51.331Z,44.25
2018-08-07T07:10:20.181Z,42.29
2018-08-07T07:12:49.081Z,43.26
2018-08-07T07:15:18.076Z,42.31
2018-08-07T07:17:47.903Z,44.40
2018-08-07T07:20:17.980Z,42.33
2018-08-07T07:22:48.237Z,40.98
2018-08-07T07:25:17.365Z,40.36
2018-08-07T07:27:46.094Z,39.99
2018-08-07T07:30:22.777Z,38.56
2018-08-07T07:32:52.918Z,37.35
2018-08-07T07:35:21.834Z,39.08
2018-08-07T07:37:51.040Z,39.34
2018-08-07T07:40:19.883Z,37.99
2018-08-07T07:42:48.817Z,36.06
2018-08-07T07:45:23.727Z,37.97
2018-08-07T07:47:52.800Z,36.46
2018-08-07T07:50:21.987Z,35.69
2018-08-07T07:52:50.983Z,36.60
2018-08-07T07:55:20.184Z,34.14
2018-08-07T07:57:49.180Z,36.00
2018-08-07T08:00:23.541Z,34.82
2018-08-07T08:02:52.999Z,34.65
2018-08-07T08:05:23.524Z,33.46
2018-08-07T08:07:52.779Z,33.39
2018-08-07T08:10:21.677Z,32.41
2018-08-07T08:12:50.551Z,31.60
2018-08-07T08:15:19.478Z,32.84
2018-08-07T08:17:49.399Z,33.30
2018-08-07T08:20:21.081Z,30.74
2018-08-07T08:22:51.041Z,29.67
2018-08-07T08:25:20.009Z,31.07
2018-08-07T08:27:48.956Z,31.58
2018-08-07T08:30:18.116Z,30.39
2018-08-07T08:32:47.159Z,29.52
2018-08-07T08:35:17.320Z,29.03
2018-08-07T08:37:46.761Z,28.40
2018-08-07T08:40:19.021Z,28.46
2018-08-07T08:42:48.363Z,30.53
2018-08-07T08:45:21.794Z,28.78
2018-08-07T08:47:53.050Z,27.94
2018-08-07T08:50:22.651Z,28.48
2018-08-07T08:52:51.700Z,27.78
2018-08-07T08:55:20.675Z,29.10
2018-08-07T08:57:49.665Z,28.64
2018-08-07T09:00:23.868Z,28.70
2018-08-07T09:02:53.187Z,26.82
2018-08-07T09:05:22.187Z,25.76
2018-08-07T09:07:51.252Z,24.27
2018-08-07T09:10:25.263Z,26.12
2018-08-07T09:12:55.143Z,25.36
2018-08-07T09:15:24.164Z,25.32
2018-08-07T09:17:53.125Z,24.27
2018-08-07T09:20:24.501Z,25.55
2018-08-07T09:22:53.496Z,24.37
2018-08-07T09:25:24.214Z,25.40
2018-08-07T09:27:53.249Z,25.73
2018-08-07T09:30:23.390Z,23.42
2018-08-07T09:32:55.206Z,22.76
2018-08-07T09:35:24.457Z,22.96
2018-08-07T09:37:54.155Z,22.35
2018-08-07T09:40:23.366Z,21.87
2018-08-07T09:42:53.552Z,22.96
2018-08-07T09:45:34.368Z,23.99
2018-08-07T09:48:07.809Z,23.41
2018-08-07T09:50:36.948Z,23.86
2018-08-07T09:53:05.909Z,23.09
2018-08-07T09:55:34.921Z,24.63
2018-08-07T09:58:03.766Z,24.04
2018-08-07T10:00:38.204Z,22.62
2018-08-07T10:03:10.827Z,24.01
2018-08-07T10:05:39.916Z,24.52
2018-08-07T10:08:08.976Z,25.30
2018-08-07T10:10:37.907Z,24.22
2018-08-07T10:13:07.025Z,22.78
2018-08-07T10:15:35.999Z,23.69
2018-08-07T10:18:05.150Z,23.42
2018-08-07T10:20:34.020Z,24.32
2018-08-07T10:23:03.063Z,23.96
2018-08-07T10:25:31.809Z,23.32
2018-08-07T10:28:00.723Z,22.99
2018-08-07T10:30:29.729Z,23.28
2018-08-07T10:32:58.745Z,22.02
2018-08-07T10:35:27.655Z,21.17
2018-08-07T10:37:56.595Z,21.43
2018-08-07T10:40:27.192Z,20.75
2018-08-07T10:42:56.287Z,21.12
2018-08-07T10:45:26.469Z,21.75
2018-08-07T10:47:55.436Z,22.45
2018-08-07T10:50:29.162Z,23.01
2018-08-07T10:52:58.989Z,23.24
2018-08-07T10:55:27.691Z,22.06
2018-08-07T10:57:58.772Z,22.03
2018-08-07T11:00:33.748Z,21.50
2018-08-07T11:03:03.348Z,21.62
2018-08-07T11:05:32.230Z,21.44
2018-08-07T11:08:01.288Z,21.24
2018-08-07T11:10:30.354Z,20.29
2018-08-07T11:12:59.226Z,21.05
2018-08-07T11:15:35.020Z,20.77
2018-08-07T11:18:04.380Z,20.48
2018-08-07T11:20:33.409Z,20.40
2018-08-07T11:23:02.877Z,19.01
2018-08-07T11:25:32.632Z,18.67
2018-08-07T11:28:01.639Z,16.75
2018-08-07T11:30:30.825Z,18.70
2018-08-07T11:33:00.804Z,18.20
2018-08-07T11:35:29.853Z,18.41
2018-08-07T11:38:00.179Z,16.66
2018-08-07T11:40:29.181Z,16.86
2018-08-07T11:42:58.533Z,16.61
2018-08-07T11:45:33.275Z,18.40
2018-08-07T11:48:02.620Z,18.07
2018-08-07T11:50:32.311Z,17.91
2018-08-07T11:53:01.333Z,17.71
2018-08-07T11:55:30.219Z,18.06
2018-08-07T11:57:59.127Z,17.70
2018-08-07T12:00:33.113Z,16.90
2018-08-07T12:03:02.420Z,17.34
2018-08-07T12:05:31.343Z,18.34
2018-08-07T12:08:00.336Z,18.91
2018-08-07T12:10:29.289Z,18.06
2018-08-07T12:12:58.254Z,17.55
2018-08-07T12:15:27.184Z,17.89
2018-08-07T12:17:56.517Z,18.32
2018-08-07T12:20:25.419Z,17.88
2018-08-07T12:22:54.439Z,17.95
2018-08-07T12:25:23.284Z,18.03
2018-08-07T12:27:52.568Z,17.30
2018-08-07T12:30:27.438Z,18.02
2018-08-07T12:32:56.801Z,17.99
2018-08-07T12:35:25.878Z,18.29
2018-08-07T12:37:54.939Z,17.94
2018-08-07T12:40:28.201Z,18.02
2018-08-07T12:42:59.524Z,17.99
2018-08-07T12:45:34.297Z,18.59
2018-08-07T12:48:03.388Z,18.58
2018-08-07T12:50:32.340Z,17.59
2018-08-07T12:53:01.480Z,18.07
2018-08-07T12:55:30.944Z,18.32
2018-08-07T12:57:59.887Z,18.33
2018-08-07T13:00:31.693Z,18.89
2018-08-07T13:03:00.728Z,19.05
2018-08-07T13:05:29.655Z,18.83
2018-08-07T13:07:58.369Z,18.39
2018-08-07T13:10:27.320Z,18.86
2018-08-07T13:12:56.525Z,18.69
2018-08-07T13:15:25.422Z,19.01
2018-08-07T13:17:54.337Z,18.47
2018-08-07T13:20:23.294Z,18.06
2018-08-07T13:22:52.215Z,18.81
2018-08-07T13:25:22.376Z,18.42
2018-08-07T13:27:51.392Z,18.83
2018-08-07T13:30:23.526Z,18.43
2018-08-07T13:32:52.441Z,18.25
2018-08-07T13:35:21.497Z,18.00
2018-08-07T13:37:51.071Z,17.97
2018-08-07T13:40:21.547Z,18.15
2018-08-07T13:42:50.567Z,18.29
2018-08-07T13:45:25.897Z,17.82
2018-08-07T13:47:54.831Z,18.29
2018-08-07T13:50:25.023Z,18.04
2018-08-07T13:52:53.858Z,18.75
2018-08-07T13:55:23.826Z,18.70
2018-08-07T13:57:52.878Z,18.29
2018-08-07T14:00:25.328Z,18.15
2018-08-07T14:02:55.122Z,18.66
2018-08-07T14:05:24.346Z,18.09
2018-08-07T14:07:55.322Z,18.06
2018-08-07T14:10:25.415Z,18.72
2018-08-07T14:12:54.372Z,17.32
2018-08-07T14:15:25.378Z,18.51
2018-08-07T14:17:54.400Z,18.71
2018-08-07T14:20:23.457Z,17.81
2018-08-07T14:22:52.191Z,18.52
2018-08-07T14:25:23.420Z,18.45
2018-08-07T14:27:52.468Z,18.06
2018-08-07T14:30:26.889Z,17.71
2018-08-07T14:32:56.020Z,17.73
2018-08-07T14:35:25.379Z,17.71
2018-08-07T14:37:54.307Z,17.71
2018-08-07T14:40:26.042Z,17.37
2018-08-07T14:42:55.392Z,17.46
2018-08-07T14:45:30.401Z,17.95
2018-08-07T14:47:59.410Z,17.54
2018-08-07T14:50:29.559Z,17.53
2018-08-07T14:52:58.593Z,16.88
2018-08-07T14:55:58.755Z,17.44
2018-08-07T14:58:27.658Z,16.54
2018-08-07T15:00:56.661Z,16.07
2018-08-07T15:03:25.561Z,16.23
2018-08-07T15:05:54.665Z,15.66
2018-08-07T15:08:23.581Z,15.74
2018-08-07T15:10:52.694Z,15.92
2018-08-07T15:13:21.704Z,15.47
2018-08-07T15:15:50.580Z,15.27
2018-08-07T15:18:19.571Z,14.25
2018-08-07T15:20:48.544Z,15.52
2018-08-07T15:23:17.656Z,15.19
2018-08-07T15:25:46.610Z,15.57
2018-08-07T15:28:15.516Z,15.54
2018-08-07T15:30:44.440Z,15.95
2018-08-07T15:33:13.326Z,15.48
2018-08-07T15:35:42.247Z,15.41
2018-08-07T15:38:11.148Z,15.20
2018-08-07T15:40:40.083Z,15.54
2018-08-07T15:43:09.013Z,16.54
2018-08-07T15:45:37.933Z,15.91
2018-08-07T15:48:07.548Z,16.35
2018-08-07T15:50:36.505Z,15.96
2018-08-07T15:53:05.392Z,15.31
2018-08-07T15:55:35.380Z,15.00
2018-08-07T15:58:04.602Z,15.71
2018-08-07T16:00:34.137Z,16.23
2018-08-07T16:03:04.797Z,15.18
2018-08-07T16:05:33.870Z,15.50
2018-08-07T16:08:02.874Z,15.92
2018-08-07T16:10:31.811Z,16.27
2018-08-07T16:13:00.774Z,16.04
2018-08-07T16:15:29.733Z,16.52
2018-08-07T16:17:58.606Z,15.88
2018-08-07T16:20:27.469Z,15.17
2018-08-07T16:22:56.316Z,14.72
2018-08-07T16:25:25.232Z,14.22
2018-08-07T16:27:54.240Z,14.10
2018-08-07T16:30:25.401Z,13.61
2018-08-07T16:32:54.292Z,13.87
2018-08-07T16:35:23.350Z,13.90
2018-08-07T16:37:52.356Z,14.10
2018-08-07T16:40:23.044Z,14.86
2018-08-07T16:42:54.065Z,14.19
2018-08-07T16:45:23.903Z,15.11
2018-08-07T16:47:52.861Z,15.27
2018-08-07T16:50:25.597Z,15.17
2018-08-07T16:52:55.731Z,14.93
2018-08-07T16:55:26.761Z,15.02
2018-08-07T16:57:55.735Z,14.84
2018-08-07T17:00:24.678Z,15.78
2018-08-07T17:02:53.753Z,15.32
2018-08-07T17:05:22.701Z,15.02
2018-08-07T17:07:51.643Z,15.64
2018-08-07T17:10:24.473Z,14.88
2018-08-07T17:12:53.552Z,15.74
2018-08-07T17:15:22.669Z,16.08
2018-08-07T17:17:51.900Z,15.68
2018-08-07T17:20:21.907Z,15.28
2018-08-07T17:22:51.573Z,16.35
2018-08-07T17:25:21.473Z,16.42
2018-08-07T17:27:50.653Z,16.41
2018-08-07T17:30:25.072Z,16.50
2018-08-07T17:32:54.159Z,16.45
2018-08-07T17:35:24.622Z,16.58
2018-08-07T17:37:56.339Z,17.74
2018-08-07T17:40:27.143Z,16.61
2018-08-07T17:42:56.472Z,16.39
2018-08-07T17:45:31.261Z,17.62
2018-08-07T17:48:00.035Z,18.54
2018-08-07T17:50:29.101Z,18.31
2018-08-07T17:52:59.363Z,17.84
2018-08-07T17:55:28.401Z,18.62
2018-08-07T17:57:59.019Z,18.73
2018-08-07T18:00:28.020Z,18.48
2018-08-07T18:02:57.079Z,19.34
2018-08-07T18:05:26.176Z,18.40
2018-08-07T18:07:56.252Z,18.67
2018-08-07T18:10:25.512Z,19.52
2018-08-07T18:12:54.451Z,20.82
2018-08-07T18:15:23.683Z,21.74
2018-08-07T18:17:52.866Z,21.89
2018-08-07T18:20:24.362Z,24.26
2018-08-07T18:22:53.399Z,25.03
2018-08-07T18:25:22.529Z,24.42
2018-08-07T18:27:51.486Z,24.25
2018-08-07T18:30:21.947Z,24.93
2018-08-07T18:32:50.873Z,26.23
2018-08-07T18:35:22.064Z,26.69
2018-08-07T18:37:50.963Z,26.63
2018-08-07T18:40:20.099Z,27.72
2018-08-07T18:42:49.085Z,27.68
2018-08-07T18:45:24.067Z,28.50
2018-08-07T18:47:53.122Z,28.31
2018-08-07T18:50:23.063Z,28.64
2018-08-07T18:52:52.182Z,29.87
2018-08-07T18:55:21.338Z,29.95
2018-08-07T18:57:51.239Z,29.28
2018-08-07T19:00:21.825Z,30.45
2018-08-07T19:02:50.927Z,30.33
2018-08-07T19:05:21.143Z,30.51
2018-08-07T19:07:50.272Z,31.31
2018-08-07T19:10:19.727Z,32.40
2018-08-07T19:12:49.140Z,32.00
2018-08-07T19:15:19.982Z,32.70
2018-08-07T19:17:49.221Z,31.08
2018-08-07T19:20:20.264Z,31.74
2018-08-07T19:22:52.486Z,31.97
2018-08-07T19:25:23.381Z,31.88
2018-08-07T19:27:52.342Z,31.20
2018-08-07T19:30:23.096Z,31.75
2018-08-07T19:32:52.508Z,33.37
2018-08-07T19:35:21.964Z,33.25
2018-08-07T19:37:50.980Z,33.76
2018-08-07T19:40:20.319Z,34.04
2018-08-07T19:42:49.990Z,34.54
2018-08-07T19:45:24.841Z,34.87
2018-08-07T19:47:53.783Z,35.81
2018-08-07T19:50:22.773Z,36.85
2018-08-07T19:52:51.612Z,36.52
2018-08-07T19:55:21.562Z,36.18
2018-08-07T19:57:50.493Z,36.38
2018-08-07T20:00:22.632Z,36.90
2018-08-07T20:02:51.736Z,36.84
2018-08-07T20:05:21.149Z,36.96
2018-08-07T20:07:50.479Z,37.10
2018-08-07T20:10:19.989Z,37.13
2018-08-07T20:12:48.970Z,37.02
2018-08-07T20:15:20.143Z,37.82
2018-08-07T20:17:49.522Z,36.26
2018-08-07T20:20:18.644Z,36.90
2018-08-07T20:22:47.592Z,37.60
2018-08-07T20:25:16.745Z,38.35
2018-08-07T20:27:45.728Z,38.63
2018-08-07T20:30:17.798Z,38.99
2018-08-07T20:32:47.619Z,38.88
2018-08-07T20:35:16.600Z,39.19
2018-08-07T20:37:45.663Z,39.17
2018-08-07T20:40:17.760Z,40.14
2018-08-07T20:42:46.867Z,40.88
2018-08-07T20:45:22.080Z,41.09
2018-08-07T20:47:51.479Z,41.09
2018-08-07T20:50:24.360Z,39.74
2018-08-07T20:52:54.128Z,39.21
2018-08-07T20:55:23.135Z,40.64
2018-08-07T20:57:52.157Z,40.41
2018-08-07T21:00:23.215Z,40.93
2018-08-07T21:02:52.240Z,41.68
2018-08-07T21:05:21.543Z,42.30
2018-08-07T21:07:50.683Z,42.94
2018-08-07T21:10:23.190Z,42.98
2018-08-07T21:12:52.241Z,43.92
2018-08-07T21:15:21.147Z,44.06
2018-08-07T21:17:50.137Z,44.73
2018-08-07T21:20:20.309Z,44.90
2018-08-07T21:22:49.363Z,46.42
2018-08-07T21:25:23.644Z,46.25
2018-08-07T21:27:54.381Z,46.64
2018-08-07T21:30:25.903Z,46.08
2018-08-07T21:32:54.927Z,46.21
2018-08-07T21:35:23.728Z,46.12
2018-08-07T21:37:52.592Z,45.79
2018-08-07T21:40:22.319Z,45.68
2018-08-07T21:42:52.404Z,45.47
2018-08-07T21:45:21.429Z,46.47
2018-08-07T21:47:50.301Z,46.89
2018-08-07T21:50:20.804Z,46.61
2018-08-07T21:52:49.809Z,46.57
2018-08-07T21:55:19.469Z,46.68
2018-08-07T21:57:48.487Z,47.02
2018-08-07T22:00:50.944Z,46.71
2018-08-07T22:03:20.258Z,48.11
2018-08-07T22:05:50.232Z,48.12
2018-08-07T22:08:19.575Z,48.99
2018-08-07T22:10:48.508Z,48.60
2018-08-07T22:13:17.369Z,48.34
2018-08-07T22:15:46.272Z,49.48
2018-08-07T22:18:15.145Z,50.13
2018-08-07T22:20:44.145Z,49.21
2018-08-07T22:23:12.992Z,49.34
2018-08-07T22:25:41.915Z,49.48
2018-08-07T22:28:10.829Z,49.15
2018-08-07T22:30:40.038Z,49.58
2018-08-07T22:33:08.994Z,47.45
2018-08-07T22:35:37.951Z,47.43
2018-08-07T22:38:06.819Z,48.90
2018-08-07T22:40:35.755Z,48.03
2018-08-07T22:43:04.735Z,47.69
2018-08-07T22:45:33.977Z,48.28
2018-08-07T22:48:03.320Z,46.91
2018-08-07T22:50:32.128Z,47.15
2018-08-07T22:53:00.984Z,45.31
2018-08-07T22:55:29.794Z,44.79
2018-08-07T22:57:58.723Z,44.29
2018-08-07T23:00:27.822Z,45.41
2018-08-07T23:02:56.732Z,46.38
2018-08-07T23:05:28.352Z,46.48
2018-08-07T23:07:58.039Z,46.14
2018-08-07T23:10:27.072Z,45.55
2018-08-07T23:12:55.987Z,46.62
2018-08-07T23:15:24.919Z,47.75
2018-08-07T23:17:53.807Z,48.35
2018-08-07T23:20:24.140Z,46.57
2018-08-07T23:22:55.998Z,45.59
2018-08-07T23:25:25.264Z,45.81
2018-08-07T23:27:54.238Z,46.07
2018-08-07T23:30:23.124Z,47.07
2018-08-07T23:32:52.003Z,48.30
2018-08-07T23:35:21.037Z,47.75
2018-08-07T23:37:49.946Z,47.45
2018-08-07T23:40:18.799Z,47.75
2018-08-07T23:42:47.679Z,48.27
2018-08-07T23:45:16.630Z,47.28
2018-08-07T23:47:45.576Z,47.78
2018-08-07T23:50:14.475Z,49.52
2018-08-07T23:52:43.397Z,48.59
2018-08-07T23:55:12.331Z,49.07
2018-08-07T23:57:41.131Z,48.66
